sensor_id;sensor_type;location;lat;lon;timestamp;temperature;humidity
6110;DHT22;3085;49.444;11.054;2023-08-07T00:00:36;12.60;99.90
6110;DHT22;3085;49.444;11.054;2023-08-07T00:03:03;12.60;99.90
6110;DHT22;3085;49.444;11.054;2023-08-07T00:05:30;12.60;99.90
6110;DHT22;3085;49.444;11.054;2023-08-07T00:07:57;12.60;99.90
6110;DHT22;3085;49.444;11.054;2023-08-07T00:10:25;12.60;99.90
6110;DHT22;3085;49.444;11.054;2023-08-07T00:12:52;12.50;99.90
6110;DHT22;3085;49.444;11.054;2023-08-07T00:15:19;12.60;99.90
6110;DHT22;3085;49.444;11.054;2023-08-07T00:17:46;12.60;99.90
6110;DHT22;3085;49.444;11.054;2023-08-07T00:20:12;12.50;99.90
6110;DHT22;3085;49.444;11.054;2023-08-07T00:22:40;11.60;99.90
6110;DHT22;3085;49.444;11.054;2023-08-07T00:25:07;12.50;99.90
6110;DHT22;3085;49.444;11.054;2023-08-07T00:27:36;12.50;99.90
6110;DHT22;3085;49.444;11.054;2023-08-07T00:30:03;12.50;99.90
6110;DHT22;3085;49.444;11.054;2023-08-07T00:32:29;12.40;99.90
6110;DHT22;3085;49.444;11.054;2023-08-07T00:34:56;12.40;99.90
6110;DHT22;3085;49.444;11.054;2023-08-07T00:37:23;12.40;99.90
6110;DHT22;3085;49.444;11.054;2023-08-07T00:39:50;12.90;99.90
6110;DHT22;3085;49.444;11.054;2023-08-07T00:42:16;12.40;99.90
6110;DHT22;3085;49.444;11.054;2023-08-07T00:44:45;12.50;99.90
6110;DHT22;3085;49.444;11.054;2023-08-07T00:47:11;12.40;99.90
6110;DHT22;3085;49.444;11.054;2023-08-07T00:49:39;12.40;99.90
6110;DHT22;3085;49.444;11.054;2023-08-07T00:52:07;12.40;99.90
6110;DHT22;3085;49.444;11.054;2023-08-07T00:54:34;12.30;99.90
6110;DHT22;3085;49.444;11.054;2023-08-07T00:57:09;12.40;99.90
6110;DHT22;3085;49.444;11.054;2023-08-07T00:59:36;12.30;99.90
6110;DHT22;3085;49.444;11.054;2023-08-07T01:02:05;12.30;99.90
6110;DHT22;3085;49.444;11.054;2023-08-07T01:04:32;12.20;99.90
6110;DHT22;3085;49.444;11.054;2023-08-07T01:06:59;12.30;99.90
6110;DHT22;3085;49.444;11.054;2023-08-07T01:09:26;12.40;99.90
6110;DHT22;3085;49.444;11.054;2023-08-07T01:11:57;12.20;99.90
6110;DHT22;3085;49.444;11.054;2023-08-07T01:14:31;12.20;99.90
6110;DHT22;3085;49.444;11.054;2023-08-07T01:17:05;12.20;99.90
6110;DHT22;3085;49.444;11.054;2023-08-07T01:19:34;12.20;99.90
6110;DHT22;3085;49.444;11.054;2023-08-07T01:22:06;12.20;99.90
6110;DHT22;3085;49.444;11.054;2023-08-07T01:24:33;12.20;99.90
6110;DHT22;3085;49.444;11.054;2023-08-07T01:27:14;12.20;99.90
6110;DHT22;3085;49.444;11.054;2023-08-07T01:29:46;12.40;99.90
6110;DHT22;3085;49.444;11.054;2023-08-07T01:32:20;12.20;99.90
6110;DHT22;3085;49.444;11.054;2023-08-07T01:34:50;12.20;99.90
6110;DHT22;3085;49.444;11.054;2023-08-07T01:37:20;12.20;99.90
6110;DHT22;3085;49.444;11.054;2023-08-07T01:39:49;12.10;99.90
6110;DHT22;3085;49.444;11.054;2023-08-07T01:42:16;12.20;99.90
6110;DHT22;3085;49.444;11.054;2023-08-07T01:44:43;12.20;99.90
6110;DHT22;3085;49.444;11.054;2023-08-07T01:47:10;12.20;99.90
6110;DHT22;3085;49.444;11.054;2023-08-07T01:49:37;12.20;99.90
6110;DHT22;3085;49.444;11.054;2023-08-07T01:52:07;12.10;99.90
6110;DHT22;3085;49.444;11.054;2023-08-07T01:54:35;12.20;99.90
6110;DHT22;3085;49.444;11.054;2023-08-07T01:57:02;12.20;99.90
6110;DHT22;3085;49.444;11.054;2023-08-07T01:59:29;12.20;99.90
6110;DHT22;3085;49.444;11.054;2023-08-07T02:01:56;12.10;99.90
6110;DHT22;3085;49.444;11.054;2023-08-07T02:04:23;12.10;99.90
6110;DHT22;3085;49.444;11.054;2023-08-07T02:06:50;12.10;99.90
6110;DHT22;3085;49.444;11.054;2023-08-07T02:09:17;12.10;99.90
6110;DHT22;3085;49.444;11.054;2023-08-07T02:11:45;12.10;99.90
6110;DHT22;3085;49.444;11.054;2023-08-07T02:14:12;12.00;99.90
6110;DHT22;3085;49.444;11.054;2023-08-07T02:16:38;12.00;99.90
6110;DHT22;3085;49.444;11.054;2023-08-07T02:19:05;12.10;99.90
6110;DHT22;3085;49.444;11.054;2023-08-07T02:21:32;12.10;99.90
6110;DHT22;3085;49.444;11.054;2023-08-07T02:23:59;12.00;99.90
6110;DHT22;3085;49.444;11.054;2023-08-07T02:26:26;12.00;99.90
6110;DHT22;3085;49.444;11.054;2023-08-07T02:28:54;12.00;99.90
6110;DHT22;3085;49.444;11.054;2023-08-07T02:31:21;12.00;99.90
6110;DHT22;3085;49.444;11.054;2023-08-07T02:33:47;12.00;99.90
6110;DHT22;3085;49.444;11.054;2023-08-07T02:36:14;12.10;99.90
6110;DHT22;3085;49.444;11.054;2023-08-07T02:38:41;12.10;99.90
6110;DHT22;3085;49.444;11.054;2023-08-07T02:41:08;12.60;99.90
6110;DHT22;3085;49.444;11.054;2023-08-07T02:43:35;11.90;99.90
6110;DHT22;3085;49.444;11.054;2023-08-07T02:46:03;12.00;99.90
6110;DHT22;3085;49.444;11.054;2023-08-07T02:48:29;12.00;99.90
6110;DHT22;3085;49.444;11.054;2023-08-07T02:50:56;12.90;99.90
6110;DHT22;3085;49.444;11.054;2023-08-07T02:53:23;12.00;99.90
6110;DHT22;3085;49.444;11.054;2023-08-07T02:55:50;12.00;99.90
6110;DHT22;3085;49.444;11.054;2023-08-07T02:58:17;12.00;99.90
6110;DHT22;3085;49.444;11.054;2023-08-07T03:00:43;12.00;99.90
6110;DHT22;3085;49.444;11.054;2023-08-07T03:03:12;12.00;99.90
6110;DHT22;3085;49.444;11.054;2023-08-07T03:05:38;12.00;99.90
6110;DHT22;3085;49.444;11.054;2023-08-07T03:08:05;11.90;99.90
6110;DHT22;3085;49.444;11.054;2023-08-07T03:10:32;12.00;99.90
6110;DHT22;3085;49.444;11.054;2023-08-07T03:12:59;11.90;99.90
6110;DHT22;3085;49.444;11.054;2023-08-07T03:15:26;11.90;99.90
6110;DHT22;3085;49.444;11.054;2023-08-07T03:17:52;11.90;99.90
6110;DHT22;3085;49.444;11.054;2023-08-07T03:20:20;12.00;99.90
6110;DHT22;3085;49.444;11.054;2023-08-07T03:22:47;11.90;99.90
6110;DHT22;3085;49.444;11.054;2023-08-07T03:25:14;11.90;99.90
6110;DHT22;3085;49.444;11.054;2023-08-07T03:27:41;11.90;99.90
6110;DHT22;3085;49.444;11.054;2023-08-07T03:30:09;11.80;99.90
6110;DHT22;3085;49.444;11.054;2023-08-07T03:32:36;11.90;99.90
6110;DHT22;3085;49.444;11.054;2023-08-07T03:35:03;11.90;99.90
6110;DHT22;3085;49.444;11.054;2023-08-07T03:37:31;11.90;99.90
6110;DHT22;3085;49.444;11.054;2023-08-07T03:39:58;11.90;99.90
6110;DHT22;3085;49.444;11.054;2023-08-07T03:42:25;11.90;99.90
6110;DHT22;3085;49.444;11.054;2023-08-07T03:44:52;11.90;99.90
6110;DHT22;3085;49.444;11.054;2023-08-07T03:47:19;11.90;99.90
6110;DHT22;3085;49.444;11.054;2023-08-07T03:49:46;11.90;99.90
6110;DHT22;3085;49.444;11.054;2023-08-07T03:52:13;11.80;99.90
6110;DHT22;3085;49.444;11.054;2023-08-07T03:54:41;11.80;99.90
6110;DHT22;3085;49.444;11.054;2023-08-07T03:57:11;11.70;99.90
6110;DHT22;3085;49.444;11.054;2023-08-07T03:59:38;11.90;99.90
6110;DHT22;3085;49.444;11.054;2023-08-07T04:02:05;11.80;99.90
6110;DHT22;3085;49.444;11.054;2023-08-07T04:04:32;13.00;99.90
6110;DHT22;3085;49.444;11.054;2023-08-07T04:06:59;11.80;99.90
6110;DHT22;3085;49.444;11.054;2023-08-07T04:09:26;11.80;99.90
6110;DHT22;3085;49.444;11.054;2023-08-07T04:11:55;11.80;99.90
6110;DHT22;3085;49.444;11.054;2023-08-07T04:14:22;11.80;99.90
6110;DHT22;3085;49.444;11.054;2023-08-07T04:16:49;11.80;99.90
6110;DHT22;3085;49.444;11.054;2023-08-07T04:19:17;11.80;99.90
6110;DHT22;3085;49.444;11.054;2023-08-07T04:21:46;12.70;99.90
6110;DHT22;3085;49.444;11.054;2023-08-07T04:24:13;11.80;99.90
6110;DHT22;3085;49.444;11.054;2023-08-07T04:26:40;11.80;99.90
6110;DHT22;3085;49.444;11.054;2023-08-07T04:29:08;11.70;99.90
6110;DHT22;3085;49.444;11.054;2023-08-07T04:31:35;11.80;99.90
6110;DHT22;3085;49.444;11.054;2023-08-07T04:34:02;11.80;99.90
6110;DHT22;3085;49.444;11.054;2023-08-07T04:36:29;11.80;99.90
6110;DHT22;3085;49.444;11.054;2023-08-07T04:38:56;11.70;99.90
6110;DHT22;3085;49.444;11.054;2023-08-07T04:41:22;11.70;99.90
6110;DHT22;3085;49.444;11.054;2023-08-07T04:43:49;11.70;99.90
6110;DHT22;3085;49.444;11.054;2023-08-07T04:46:18;11.80;99.90
6110;DHT22;3085;49.444;11.054;2023-08-07T04:48:45;11.80;99.90
6110;DHT22;3085;49.444;11.054;2023-08-07T04:51:12;11.90;99.90
6110;DHT22;3085;49.444;11.054;2023-08-07T04:53:40;11.70;99.90
6110;DHT22;3085;49.444;11.054;2023-08-07T04:56:07;11.80;99.90
6110;DHT22;3085;49.444;11.054;2023-08-07T04:58:34;10.50;99.90
6110;DHT22;3085;49.444;11.054;2023-08-07T05:01:01;11.90;99.90
6110;DHT22;3085;49.444;11.054;2023-08-07T05:03:30;11.80;99.90
6110;DHT22;3085;49.444;11.054;2023-08-07T05:06:00;11.70;99.90
6110;DHT22;3085;49.444;11.054;2023-08-07T05:08:26;11.80;99.90
6110;DHT22;3085;49.444;11.054;2023-08-07T05:10:53;11.70;99.90
6110;DHT22;3085;49.444;11.054;2023-08-07T05:13:20;11.70;99.90
6110;DHT22;3085;49.444;11.054;2023-08-07T05:15:47;12.00;99.90
6110;DHT22;3085;49.444;11.054;2023-08-07T05:18:14;11.80;99.90
6110;DHT22;3085;49.444;11.054;2023-08-07T05:20:43;11.80;99.90
6110;DHT22;3085;49.444;11.054;2023-08-07T05:23:09;11.70;99.90
6110;DHT22;3085;49.444;11.054;2023-08-07T05:25:37;11.70;99.90
6110;DHT22;3085;49.444;11.054;2023-08-07T05:28:04;11.70;99.90
6110;DHT22;3085;49.444;11.054;2023-08-07T05:30:31;11.70;99.90
6110;DHT22;3085;49.444;11.054;2023-08-07T05:32:58;11.70;99.90
6110;DHT22;3085;49.444;11.054;2023-08-07T05:35:24;11.70;99.90
6110;DHT22;3085;49.444;11.054;2023-08-07T05:37:53;11.70;99.90
6110;DHT22;3085;49.444;11.054;2023-08-07T05:40:19;11.70;99.90
6110;DHT22;3085;49.444;11.054;2023-08-07T05:42:46;11.70;99.90
6110;DHT22;3085;49.444;11.054;2023-08-07T05:45:13;11.70;99.90
6110;DHT22;3085;49.444;11.054;2023-08-07T05:47:40;11.70;99.90
6110;DHT22;3085;49.444;11.054;2023-08-07T05:50:07;11.70;99.90
6110;DHT22;3085;49.444;11.054;2023-08-07T05:52:34;11.70;99.90
6110;DHT22;3085;49.444;11.054;2023-08-07T05:55:02;11.70;99.90
6110;DHT22;3085;49.444;11.054;2023-08-07T05:57:29;11.80;99.90
6110;DHT22;3085;49.444;11.054;2023-08-07T05:59:56;11.70;99.90
6110;DHT22;3085;49.444;11.054;2023-08-07T06:02:23;11.70;99.90
6110;DHT22;3085;49.444;11.054;2023-08-07T06:04:50;11.70;99.90
6110;DHT22;3085;49.444;11.054;2023-08-07T06:07:16;11.70;99.90
6110;DHT22;3085;49.444;11.054;2023-08-07T06:09:43;11.70;99.90
6110;DHT22;3085;49.444;11.054;2023-08-07T06:12:11;11.80;99.90
6110;DHT22;3085;49.444;11.054;2023-08-07T06:14:38;11.80;99.90
6110;DHT22;3085;49.444;11.054;2023-08-07T06:17:05;11.80;99.90
6110;DHT22;3085;49.444;11.054;2023-08-07T06:19:31;11.70;99.90
6110;DHT22;3085;49.444;11.054;2023-08-07T06:21:58;11.80;99.90
6110;DHT22;3085;49.444;11.054;2023-08-07T06:24:25;11.80;99.90
6110;DHT22;3085;49.444;11.054;2023-08-07T06:26:52;11.80;99.90
6110;DHT22;3085;49.444;11.054;2023-08-07T06:29:20;11.80;99.90
6110;DHT22;3085;49.444;11.054;2023-08-07T06:31:47;11.70;99.90
6110;DHT22;3085;49.444;11.054;2023-08-07T06:34:14;11.70;99.90
6110;DHT22;3085;49.444;11.054;2023-08-07T06:36:40;11.80;99.90
6110;DHT22;3085;49.444;11.054;2023-08-07T06:39:07;11.80;99.90
6110;DHT22;3085;49.444;11.054;2023-08-07T06:41:35;11.80;99.90
6110;DHT22;3085;49.444;11.054;2023-08-07T06:44:01;11.80;99.90
6110;DHT22;3085;49.444;11.054;2023-08-07T06:46:29;11.90;99.90
6110;DHT22;3085;49.444;11.054;2023-08-07T06:48:56;11.90;99.90
6110;DHT22;3085;49.444;11.054;2023-08-07T06:51:23;11.80;99.90
6110;DHT22;3085;49.444;11.054;2023-08-07T06:53:50;11.80;99.90
6110;DHT22;3085;49.444;11.054;2023-08-07T06:56:16;11.80;99.90
6110;DHT22;3085;49.444;11.054;2023-08-07T06:58:43;11.80;99.90
6110;DHT22;3085;49.444;11.054;2023-08-07T07:01:10;11.80;99.90
6110;DHT22;3085;49.444;11.054;2023-08-07T07:03:38;11.80;99.90
6110;DHT22;3085;49.444;11.054;2023-08-07T07:06:05;11.90;99.90
6110;DHT22;3085;49.444;11.054;2023-08-07T07:08:32;11.90;99.90
6110;DHT22;3085;49.444;11.054;2023-08-07T07:10:58;11.80;99.90
6110;DHT22;3085;49.444;11.054;2023-08-07T07:13:26;11.90;99.90
6110;DHT22;3085;49.444;11.054;2023-08-07T07:15:54;11.80;99.90
6110;DHT22;3085;49.444;11.054;2023-08-07T07:18:21;11.90;99.90
6110;DHT22;3085;49.444;11.054;2023-08-07T07:20:56;11.90;99.90
6110;DHT22;3085;49.444;11.054;2023-08-07T07:23:25;11.90;99.90
6110;DHT22;3085;49.444;11.054;2023-08-07T07:25:52;12.10;99.90
6110;DHT22;3085;49.444;11.054;2023-08-07T07:28:18;12.10;99.90
6110;DHT22;3085;49.444;11.054;2023-08-07T07:30:45;11.90;99.90
6110;DHT22;3085;49.444;11.054;2023-08-07T07:33:12;12.00;99.90
6110;DHT22;3085;49.444;11.054;2023-08-07T07:35:40;12.00;99.90
6110;DHT22;3085;49.444;11.054;2023-08-07T07:38:11;12.10;99.90
6110;DHT22;3085;49.444;11.054;2023-08-07T07:40:39;12.00;99.90
6110;DHT22;3085;49.444;11.054;2023-08-07T07:43:06;12.00;99.90
6110;DHT22;3085;49.444;11.054;2023-08-07T07:45:33;12.00;99.90
6110;DHT22;3085;49.444;11.054;2023-08-07T07:48:01;12.10;99.90
6110;DHT22;3085;49.444;11.054;2023-08-07T07:50:28;12.10;99.90
6110;DHT22;3085;49.444;11.054;2023-08-07T07:52:55;12.10;99.90
6110;DHT22;3085;49.444;11.054;2023-08-07T07:55:24;12.20;99.90
6110;DHT22;3085;49.444;11.054;2023-08-07T07:57:51;12.20;99.90
6110;DHT22;3085;49.444;11.054;2023-08-07T08:00:18;12.20;99.90
6110;DHT22;3085;49.444;11.054;2023-08-07T08:02:45;12.30;99.90
6110;DHT22;3085;49.444;11.054;2023-08-07T08:05:12;12.30;99.90
6110;DHT22;3085;49.444;11.054;2023-08-07T08:07:41;12.30;99.90
6110;DHT22;3085;49.444;11.054;2023-08-07T08:10:08;12.20;99.90
6110;DHT22;3085;49.444;11.054;2023-08-07T08:12:37;12.20;99.90
6110;DHT22;3085;49.444;11.054;2023-08-07T08:15:04;12.70;99.90
6110;DHT22;3085;49.444;11.054;2023-08-07T08:17:31;12.20;99.90
6110;DHT22;3085;49.444;11.054;2023-08-07T08:19:58;12.20;99.90
6110;DHT22;3085;49.444;11.054;2023-08-07T08:22:25;12.20;99.90
6110;DHT22;3085;49.444;11.054;2023-08-07T08:24:51;12.30;99.90
6110;DHT22;3085;49.444;11.054;2023-08-07T08:27:18;12.20;99.90
6110;DHT22;3085;49.444;11.054;2023-08-07T08:29:46;12.30;99.90
6110;DHT22;3085;49.444;11.054;2023-08-07T08:32:13;12.20;99.90
6110;DHT22;3085;49.444;11.054;2023-08-07T08:34:40;12.30;99.90
6110;DHT22;3085;49.444;11.054;2023-08-07T08:37:06;12.30;99.90
6110;DHT22;3085;49.444;11.054;2023-08-07T08:39:35;12.30;99.90
6110;DHT22;3085;49.444;11.054;2023-08-07T08:42:03;12.30;99.90
6110;DHT22;3085;49.444;11.054;2023-08-07T08:44:31;12.20;99.90
6110;DHT22;3085;49.444;11.054;2023-08-07T08:47:04;12.30;99.90
6110;DHT22;3085;49.444;11.054;2023-08-07T08:49:35;12.30;99.90
6110;DHT22;3085;49.444;11.054;2023-08-07T08:52:02;12.40;99.90
6110;DHT22;3085;49.444;11.054;2023-08-07T08:54:30;12.40;99.90
6110;DHT22;3085;49.444;11.054;2023-08-07T08:56:57;12.40;99.90
6110;DHT22;3085;49.444;11.054;2023-08-07T08:59:25;12.40;99.90
6110;DHT22;3085;49.444;11.054;2023-08-07T09:01:52;12.40;99.90
6110;DHT22;3085;49.444;11.054;2023-08-07T09:04:20;12.50;99.90
6110;DHT22;3085;49.444;11.054;2023-08-07T09:06:47;12.50;99.90
6110;DHT22;3085;49.444;11.054;2023-08-07T09:09:14;12.40;99.90
6110;DHT22;3085;49.444;11.054;2023-08-07T09:11:43;12.50;99.90
6110;DHT22;3085;49.444;11.054;2023-08-07T09:14:13;12.50;99.90
6110;DHT22;3085;49.444;11.054;2023-08-07T09:16:42;12.50;99.90
6110;DHT22;3085;49.444;11.054;2023-08-07T09:19:08;12.60;99.90
6110;DHT22;3085;49.444;11.054;2023-08-07T09:21:37;12.90;99.90
6110;DHT22;3085;49.444;11.054;2023-08-07T09:24:04;12.30;99.90
6110;DHT22;3085;49.444;11.054;2023-08-07T09:26:32;12.50;99.90
6110;DHT22;3085;49.444;11.054;2023-08-07T09:28:59;12.50;99.90
6110;DHT22;3085;49.444;11.054;2023-08-07T09:31:26;12.60;99.90
6110;DHT22;3085;49.444;11.054;2023-08-07T09:33:53;12.60;99.90
6110;DHT22;3085;49.444;11.054;2023-08-07T09:36:20;12.60;99.90
6110;DHT22;3085;49.444;11.054;2023-08-07T09:38:51;12.50;99.90
6110;DHT22;3085;49.444;11.054;2023-08-07T09:41:18;12.60;99.90
6110;DHT22;3085;49.444;11.054;2023-08-07T09:43:45;12.70;99.90
6110;DHT22;3085;49.444;11.054;2023-08-07T09:46:12;12.70;99.90
6110;DHT22;3085;49.444;11.054;2023-08-07T09:48:40;12.70;99.90
6110;DHT22;3085;49.444;11.054;2023-08-07T09:51:07;12.60;99.90
6110;DHT22;3085;49.444;11.054;2023-08-07T09:53:35;12.60;99.90
6110;DHT22;3085;49.444;11.054;2023-08-07T09:56:03;12.60;99.90
6110;DHT22;3085;49.444;11.054;2023-08-07T09:58:31;12.60;99.90
6110;DHT22;3085;49.444;11.054;2023-08-07T10:00:59;12.60;99.90
6110;DHT22;3085;49.444;11.054;2023-08-07T10:03:27;12.60;99.90
6110;DHT22;3085;49.444;11.054;2023-08-07T10:05:54;12.70;99.90
6110;DHT22;3085;49.444;11.054;2023-08-07T10:08:22;12.60;99.90
6110;DHT22;3085;49.444;11.054;2023-08-07T10:10:51;12.70;99.90
6110;DHT22;3085;49.444;11.054;2023-08-07T10:13:19;12.70;99.90
6110;DHT22;3085;49.444;11.054;2023-08-07T10:15:47;12.70;99.90
6110;DHT22;3085;49.444;11.054;2023-08-07T10:18:14;12.70;99.90
6110;DHT22;3085;49.444;11.054;2023-08-07T10:20:42;12.60;99.90
6110;DHT22;3085;49.444;11.054;2023-08-07T10:23:11;12.70;99.90
6110;DHT22;3085;49.444;11.054;2023-08-07T10:25:40;12.70;99.90
6110;DHT22;3085;49.444;11.054;2023-08-07T10:28:10;12.70;99.90
6110;DHT22;3085;49.444;11.054;2023-08-07T10:30:41;12.80;99.90
6110;DHT22;3085;49.444;11.054;2023-08-07T10:33:09;12.80;99.90
6110;DHT22;3085;49.444;11.054;2023-08-07T10:35:37;12.70;99.90
6110;DHT22;3085;49.444;11.054;2023-08-07T10:38:07;12.90;99.90
6110;DHT22;3085;49.444;11.054;2023-08-07T10:40:39;12.90;99.90
6110;DHT22;3085;49.444;11.054;2023-08-07T10:43:24;12.90;99.90
6110;DHT22;3085;49.444;11.054;2023-08-07T10:45:54;13.00;99.90
6110;DHT22;3085;49.444;11.054;2023-08-07T10:48:27;13.00;99.90
6110;DHT22;3085;49.444;11.054;2023-08-07T10:50:57;13.00;99.90
6110;DHT22;3085;49.444;11.054;2023-08-07T10:53:30;13.00;99.90
6110;DHT22;3085;49.444;11.054;2023-08-07T10:55:58;13.00;99.90
6110;DHT22;3085;49.444;11.054;2023-08-07T10:58:26;13.00;99.90
6110;DHT22;3085;49.444;11.054;2023-08-07T11:01:24;13.00;99.90
6110;DHT22;3085;49.444;11.054;2023-08-07T11:03:55;13.10;99.90
6110;DHT22;3085;49.444;11.054;2023-08-07T11:06:23;13.10;99.90
6110;DHT22;3085;49.444;11.054;2023-08-07T11:08:52;13.10;99.90
6110;DHT22;3085;49.444;11.054;2023-08-07T11:11:19;13.20;99.90
6110;DHT22;3085;49.444;11.054;2023-08-07T11:13:46;13.10;99.90
6110;DHT22;3085;49.444;11.054;2023-08-07T11:16:13;13.10;99.90
6110;DHT22;3085;49.444;11.054;2023-08-07T11:18:42;13.10;99.90
6110;DHT22;3085;49.444;11.054;2023-08-07T11:21:10;13.20;99.90
6110;DHT22;3085;49.444;11.054;2023-08-07T11:23:37;13.10;99.90
6110;DHT22;3085;49.444;11.054;2023-08-07T11:26:04;13.50;99.90
6110;DHT22;3085;49.444;11.054;2023-08-07T11:28:31;13.20;99.90
6110;DHT22;3085;49.444;11.054;2023-08-07T11:30:58;13.20;99.90
6110;DHT22;3085;49.444;11.054;2023-08-07T11:33:25;13.20;99.90
6110;DHT22;3085;49.444;11.054;2023-08-07T11:35:54;13.20;99.90
6110;DHT22;3085;49.444;11.054;2023-08-07T11:38:32;13.40;99.90
6110;DHT22;3085;49.444;11.054;2023-08-07T11:41:00;13.40;99.90
6110;DHT22;3085;49.444;11.054;2023-08-07T11:43:28;13.30;99.90
6110;DHT22;3085;49.444;11.054;2023-08-07T11:45:57;13.30;99.90
6110;DHT22;3085;49.444;11.054;2023-08-07T11:48:25;13.30;99.90
6110;DHT22;3085;49.444;11.054;2023-08-07T11:50:54;13.30;99.90
6110;DHT22;3085;49.444;11.054;2023-08-07T11:53:22;13.30;99.90
6110;DHT22;3085;49.444;11.054;2023-08-07T11:55:52;13.40;99.90
6110;DHT22;3085;49.444;11.054;2023-08-07T11:58:20;13.40;99.90
6110;DHT22;3085;49.444;11.054;2023-08-07T12:00:47;13.40;99.90
6110;DHT22;3085;49.444;11.054;2023-08-07T12:03:34;13.40;99.90
6110;DHT22;3085;49.444;11.054;2023-08-07T12:06:06;13.40;99.90
6110;DHT22;3085;49.444;11.054;2023-08-07T12:08:34;13.40;99.90
6110;DHT22;3085;49.444;11.054;2023-08-07T12:11:02;13.40;99.90
6110;DHT22;3085;49.444;11.054;2023-08-07T12:13:30;13.40;99.90
6110;DHT22;3085;49.444;11.054;2023-08-07T12:15:58;14.00;99.90
6110;DHT22;3085;49.444;11.054;2023-08-07T12:18:27;14.20;99.90
6110;DHT22;3085;49.444;11.054;2023-08-07T12:20:58;13.50;99.90
6110;DHT22;3085;49.444;11.054;2023-08-07T12:23:26;13.50;99.90
6110;DHT22;3085;49.444;11.054;2023-08-07T12:25:53;13.50;99.90
6110;DHT22;3085;49.444;11.054;2023-08-07T12:28:21;13.60;99.90
6110;DHT22;3085;49.444;11.054;2023-08-07T12:30:48;13.60;99.90
6110;DHT22;3085;49.444;11.054;2023-08-07T12:33:16;13.70;99.90
6110;DHT22;3085;49.444;11.054;2023-08-07T12:35:43;13.60;99.90
6110;DHT22;3085;49.444;11.054;2023-08-07T12:38:10;13.60;99.90
6110;DHT22;3085;49.444;11.054;2023-08-07T12:40:41;13.60;99.90
6110;DHT22;3085;49.444;11.054;2023-08-07T12:43:08;13.60;99.90
6110;DHT22;3085;49.444;11.054;2023-08-07T12:45:35;13.80;99.90
6110;DHT22;3085;49.444;11.054;2023-08-07T12:48:02;13.60;99.90
6110;DHT22;3085;49.444;11.054;2023-08-07T12:50:29;13.50;99.90
6110;DHT22;3085;49.444;11.054;2023-08-07T12:52:56;13.40;99.90
6110;DHT22;3085;49.444;11.054;2023-08-07T12:55:22;13.40;99.90
6110;DHT22;3085;49.444;11.054;2023-08-07T12:57:52;13.40;99.90
6110;DHT22;3085;49.444;11.054;2023-08-07T13:00:20;13.40;99.90
6110;DHT22;3085;49.444;11.054;2023-08-07T13:02:48;13.40;99.90
6110;DHT22;3085;49.444;11.054;2023-08-07T13:05:16;13.30;99.90
6110;DHT22;3085;49.444;11.054;2023-08-07T13:07:44;13.40;99.90
6110;DHT22;3085;49.444;11.054;2023-08-07T13:10:12;13.40;99.90
6110;DHT22;3085;49.444;11.054;2023-08-07T13:12:41;13.50;99.90
6110;DHT22;3085;49.444;11.054;2023-08-07T13:15:14;13.40;99.90
6110;DHT22;3085;49.444;11.054;2023-08-07T13:17:42;13.40;99.90
6110;DHT22;3085;49.444;11.054;2023-08-07T13:20:10;13.30;99.90
6110;DHT22;3085;49.444;11.054;2023-08-07T13:22:38;13.20;99.90
6110;DHT22;3085;49.444;11.054;2023-08-07T13:25:06;13.10;99.90
6110;DHT22;3085;49.444;11.054;2023-08-07T13:27:34;13.10;99.90
6110;DHT22;3085;49.444;11.054;2023-08-07T13:30:01;13.20;99.90
6110;DHT22;3085;49.444;11.054;2023-08-07T13:32:34;13.20;99.90
6110;DHT22;3085;49.444;11.054;2023-08-07T13:35:15;13.10;99.90
6110;DHT22;3085;49.444;11.054;2023-08-07T13:37:47;13.20;99.90
6110;DHT22;3085;49.444;11.054;2023-08-07T13:40:14;13.10;99.90
6110;DHT22;3085;49.444;11.054;2023-08-07T13:42:40;13.20;99.90
6110;DHT22;3085;49.444;11.054;2023-08-07T13:45:08;13.40;99.90
6110;DHT22;3085;49.444;11.054;2023-08-07T13:47:36;13.20;99.90
6110;DHT22;3085;49.444;11.054;2023-08-07T13:50:05;13.20;99.90
6110;DHT22;3085;49.444;11.054;2023-08-07T13:52:32;13.30;99.90
6110;DHT22;3085;49.444;11.054;2023-08-07T13:54:59;13.20;99.90
6110;DHT22;3085;49.444;11.054;2023-08-07T13:57:26;13.30;99.90
6110;DHT22;3085;49.444;11.054;2023-08-07T13:59:52;13.30;99.90
6110;DHT22;3085;49.444;11.054;2023-08-07T14:02:20;13.40;99.90
6110;DHT22;3085;49.444;11.054;2023-08-07T14:04:48;13.30;99.90
6110;DHT22;3085;49.444;11.054;2023-08-07T14:07:15;13.30;99.90
6110;DHT22;3085;49.444;11.054;2023-08-07T14:09:42;13.30;99.90
6110;DHT22;3085;49.444;11.054;2023-08-07T14:12:09;13.40;99.90
6110;DHT22;3085;49.444;11.054;2023-08-07T14:14:35;13.30;99.90
6110;DHT22;3085;49.444;11.054;2023-08-07T14:17:02;13.40;99.90
6110;DHT22;3085;49.444;11.054;2023-08-07T14:19:32;13.40;99.90
6110;DHT22;3085;49.444;11.054;2023-08-07T14:22:03;13.50;99.90
6110;DHT22;3085;49.444;11.054;2023-08-07T14:24:29;13.50;99.90
6110;DHT22;3085;49.444;11.054;2023-08-07T14:26:56;13.40;99.90
6110;DHT22;3085;49.444;11.054;2023-08-07T14:29:25;13.50;99.90
6110;DHT22;3085;49.444;11.054;2023-08-07T14:31:52;13.50;99.90
6110;DHT22;3085;49.444;11.054;2023-08-07T14:34:22;13.50;99.90
6110;DHT22;3085;49.444;11.054;2023-08-07T14:36:49;13.50;99.90
6110;DHT22;3085;49.444;11.054;2023-08-07T14:39:17;13.80;99.90
6110;DHT22;3085;49.444;11.054;2023-08-07T14:41:44;13.50;99.90
6110;DHT22;3085;49.444;11.054;2023-08-07T14:44:14;13.60;99.90
6110;DHT22;3085;49.444;11.054;2023-08-07T14:46:43;14.00;99.90
6110;DHT22;3085;49.444;11.054;2023-08-07T14:49:10;13.60;99.90
6110;DHT22;3085;49.444;11.054;2023-08-07T14:51:37;12.50;99.90
6110;DHT22;3085;49.444;11.054;2023-08-07T14:54:06;14.40;99.90
6110;DHT22;3085;49.444;11.054;2023-08-07T14:56:35;13.60;99.90
6110;DHT22;3085;49.444;11.054;2023-08-07T14:59:02;13.60;99.90
6110;DHT22;3085;49.444;11.054;2023-08-07T15:01:29;13.60;99.90
6110;DHT22;3085;49.444;11.054;2023-08-07T15:03:57;13.60;99.90
6110;DHT22;3085;49.444;11.054;2023-08-07T15:06:27;13.70;99.90
6110;DHT22;3085;49.444;11.054;2023-08-07T15:08:53;13.80;99.90
6110;DHT22;3085;49.444;11.054;2023-08-07T15:11:20;13.70;99.90
6110;DHT22;3085;49.444;11.054;2023-08-07T15:13:49;13.80;99.90
6110;DHT22;3085;49.444;11.054;2023-08-07T15:16:16;14.80;99.90
6110;DHT22;3085;49.444;11.054;2023-08-07T15:18:42;14.00;99.90
6110;DHT22;3085;49.444;11.054;2023-08-07T15:21:17;13.90;99.90
6110;DHT22;3085;49.444;11.054;2023-08-07T15:23:44;14.00;99.90
6110;DHT22;3085;49.444;11.054;2023-08-07T15:26:11;15.10;99.90
6110;DHT22;3085;49.444;11.054;2023-08-07T15:28:38;14.00;99.90
6110;DHT22;3085;49.444;11.054;2023-08-07T15:31:06;14.10;99.90
6110;DHT22;3085;49.444;11.054;2023-08-07T15:33:33;14.10;99.90
6110;DHT22;3085;49.444;11.054;2023-08-07T15:36:00;14.00;99.90
6110;DHT22;3085;49.444;11.054;2023-08-07T15:38:27;14.10;99.90
6110;DHT22;3085;49.444;11.054;2023-08-07T15:40:54;14.10;99.90
6110;DHT22;3085;49.444;11.054;2023-08-07T15:43:22;14.10;99.90
6110;DHT22;3085;49.444;11.054;2023-08-07T15:45:51;14.10;99.90
6110;DHT22;3085;49.444;11.054;2023-08-07T15:48:19;14.10;99.90